Time;durP1;ratioP1;P1;durP2;ratioP2;P2;SDS_P1;SDS_P2;PMS_P1;PMS_P2;Temp;Humidity;BMP_temperature;BMP_pressure;BME280_temperature;BME280_humidity;BME280_pressure;Samples;Min_cycle;Max_cycle;Signal;HPM_P1;HPM_P2
2023/09/05 00:01:24;;;;;;;9.40;6.70;;;;;;;;;;106263;299;24193;-35
2023/09/05 00:03:50;;;;;;;8.30;6.00;;;;;;;;;;106358;299;24254;-31
2023/09/05 00:06:16;;;;;;;10.80;5.90;;;;;;;;;;106301;299;24636;-31
2023/09/05 00:08:41;;;;;;;7.40;6.30;;;;;;;;;;106280;299;22970;-30
2023/09/05 00:11:07;;;;;;;10.80;6.30;;;;;;;;;;106335;299;22970;-37
2023/09/05 00:13:32;;;;;;;33.20;15.40;;;;;;;;;;106212;299;25879;-30
2023/09/05 00:15:58;;;;;;;25.70;14.20;;;;;;;;;;106258;299;24196;-36
2023/09/05 00:18:23;;;;;;;35.80;20.80;;;;;;;;;;106313;299;22539;-34
2023/09/05 00:20:54;;;;;;;39.90;23.40;;;;;;;;;;106355;299;22473;-33
2023/09/05 00:23:21;;;;;;;21.00;11.60;;;;;;;;;;106359;299;22546;-29
2023/09/05 00:25:48;;;;;;;11.70;8.40;;;;;;;;;;106309;299;22945;-36
2023/09/05 00:28:13;;;;;;;10.80;6.70;;;;;;;;;;106329;299;24154;-32
2023/09/05 00:30:39;;;;;;;12.10;6.80;;;;;;;;;;106317;303;24081;-32
2023/09/05 00:33:04;;;;;;;11.70;6.80;;;;;;;;;;106269;299;22861;-30
2023/09/05 00:35:30;;;;;;;19.30;11.30;;;;;;;;;;106285;299;24193;-35
2023/09/05 01:18:33;;;;;;;10.00;8.30;;;;;;;-100.22;19.20;20096.66;101622;314;1574067;-34
2023/09/05 01:21:16;;;;;;;7.70;5.70;;;;;;;-128.00;-1.00;-1.00;41114;316;7504405;-35
2023/09/05 01:23:45;;;;;;;;;;;;;;;-128.00;-1.00;-1.00;19077;314;7505254;-30
2023/09/05 01:26:11;;;;;;;9.50;6.80;;;;;;;-128.00;-1.00;-1.00;19117;319;7504893;-31
2023/09/05 01:28:41;;;;;;;6.70;6.10;;;;;;;-128.00;-1.00;-1.00;19083;320;7505136;-35
2023/09/05 01:31:10;;;;;;;4.80;4.10;;;;;;;-128.00;-1.00;-1.00;19085;319;7504837;-31
2023/09/05 01:33:39;;;;;;;4.20;3.90;;;;;;;-128.00;-1.00;-1.00;19085;314;7507071;-35
2023/09/05 01:36:06;;;;;;;15.40;10.50;;;;;;;-128.00;-1.00;-1.00;19114;314;7506089;-31
2023/09/05 01:38:35;;;;;;;8.80;7.80;;;;;;;-128.00;-1.00;-1.00;19098;314;7506409;-34
2023/09/05 01:41:01;;;;;;;9.30;8.40;;;;;;;-128.00;-1.00;-1.00;19070;314;7504557;-32
2023/09/05 01:43:27;;;;;;;7.40;6.70;;;;;;;-128.00;-1.00;-1.00;19102;314;7504919;-34
2023/09/05 01:45:53;;;;;;;7.10;6.50;;;;;;;-128.00;-1.00;-1.00;19091;314;7505973;-31
2023/09/05 01:48:19;;;;;;;11.70;6.40;;;;;;;-128.00;-1.00;-1.00;19501;320;7504821;-32
2023/09/05 01:50:45;;;;;;;9.30;6.00;;;;;;;-128.00;-1.00;-1.00;19516;314;7506306;-32
2023/09/05 01:53:11;;;;;;;12.70;7.30;;;;;;;-128.00;-1.00;-1.00;19498;314;7505410;-32
2023/09/05 01:55:37;;;;;;;34.60;17.30;;;;;;;-128.00;-1.00;-1.00;19521;319;7504875;-36
2023/09/05 01:58:04;;;;;;;25.40;11.70;;;;;;;-128.00;-1.00;-1.00;19509;314;7505091;-36
2023/09/05 02:00:30;;;;;;;15.50;7.70;;;;;;;-128.00;-1.00;-1.00;19529;314;7504457;-35
2023/09/05 02:02:56;;;;;;;8.00;6.30;;;;;;;-128.00;-1.00;-1.00;19528;314;7505470;-35
2023/09/05 02:05:22;;;;;;;9.40;7.40;;;;;;;-128.00;-1.00;-1.00;19525;319;7505063;-32
2023/09/05 02:07:48;;;;;;;8.60;7.10;;;;;;;-128.00;-1.00;-1.00;19535;318;7504751;-32
2023/09/05 02:10:14;;;;;;;8.40;7.60;;;;;;;-128.00;-1.00;-1.00;19066;314;7506352;-31
2023/09/05 02:12:43;;;;;;;5.10;4.60;;;;;;;-128.00;-1.00;-1.00;19085;314;7505181;-31
2023/09/05 02:15:10;;;;;;;15.70;11.20;;;;;;;-128.00;-1.00;-1.00;19097;314;7505354;-32
2023/09/05 02:17:36;;;;;;;6.80;6.10;;;;;;;-128.00;-1.00;-1.00;19095;319;7506479;-31
2023/09/05 02:20:03;;;;;;;9.20;7.60;;;;;;;-128.00;-1.00;-1.00;19082;314;7504692;-31
2023/09/05 02:22:29;;;;;;;21.00;14.60;;;;;;;-128.00;-1.00;-1.00;19086;315;7506838;-32
2023/09/05 02:24:54;;;;;;;14.70;11.80;;;;;;;-128.00;-1.00;-1.00;19081;314;7505370;-32
2023/09/05 02:27:21;;;;;;;14.80;9.90;;;;;;;-128.00;-1.00;-1.00;19534;320;7504545;-36
2023/09/05 02:29:56;;;;;;;9.80;7.90;;;;;;;-128.00;-1.00;-1.00;19539;314;7504622;-31
2023/09/05 02:32:22;;;;;;;7.20;6.50;;;;;;;-128.00;-1.00;-1.00;19124;314;7506050;-35
2023/09/05 02:34:50;;;;;;;6.20;5.20;;;;;;;-128.00;-1.00;-1.00;19098;318;7505130;-31
2023/09/05 02:37:16;;;;;;;4.00;3.60;;;;;;;-128.00;-1.00;-1.00;19110;314;7505224;-35
2023/09/05 02:39:42;;;;;;;10.50;6.10;;;;;;;-128.00;-1.00;-1.00;19100;314;7506255;-31
2023/09/05 02:42:08;;;;;;;13.40;9.60;;;;;;;-128.00;-1.00;-1.00;19111;318;7504919;-31
2023/09/05 02:44:34;;;;;;;21.10;9.40;;;;;;;-128.00;-1.00;-1.00;19519;314;7505113;-31
2023/09/05 02:47:00;;;;;;;9.50;7.90;;;;;;;-128.00;-1.00;-1.00;19513;320;7504511;-35
2023/09/05 02:49:26;;;;;;;13.50;7.20;;;;;;;-128.00;-1.00;-1.00;19510;314;7504847;-32
2023/09/05 02:51:52;;;;;;;14.70;7.60;;;;;;;-128.00;-1.00;-1.00;19495;316;7504521;-36
2023/09/05 02:54:18;;;;;;;51.50;25.30;;;;;;;-128.00;-1.00;-1.00;19517;318;7505407;-31
2023/09/05 02:56:45;;;;;;;18.00;11.30;;;;;;;-128.00;-1.00;-1.00;19520;314;7504716;-31
2023/09/05 02:59:11;;;;;;;34.30;20.30;;;;;;;-128.00;-1.00;-1.00;19531;314;7506068;-37
2023/09/05 03:01:37;;;;;;;41.80;21.70;;;;;;;-128.00;-1.00;-1.00;19514;320;7504627;-35
2023/09/05 03:04:03;;;;;;;20.90;13.60;;;;;;;-128.00;-1.00;-1.00;19086;314;7506303;-35
2023/09/05 03:06:29;;;;;;;14.60;7.90;;;;;;;-128.00;-1.00;-1.00;19086;319;7504740;-32
2023/09/05 03:08:55;;;;;;;10.00;8.00;;;;;;;-128.00;-1.00;-1.00;19524;314;7505429;-31
2023/09/05 03:11:21;;;;;;;14.80;9.70;;;;;;;-128.00;-1.00;-1.00;19504;320;7505112;-35
2023/09/05 03:13:47;;;;;;;8.00;6.80;;;;;;;-128.00;-1.00;-1.00;19526;318;7505178;-35
2023/09/05 03:16:14;;;;;;;12.40;8.90;;;;;;;-128.00;-1.00;-1.00;19502;315;7504732;-35
2023/09/05 03:18:40;;;;;;;8.10;7.10;;;;;;;-128.00;-1.00;-1.00;19504;314;7506090;-35
2023/09/05 03:21:07;;;;;;;12.50;7.20;;;;;;;-128.00;-1.00;-1.00;19536;314;7505431;-37
2023/09/05 03:23:33;;;;;;;7.30;6.60;;;;;;;-128.00;-1.00;-1.00;19118;320;7505018;-32
2023/09/05 03:25:58;;;;;;;5.70;4.80;;;;;;;-128.00;-1.00;-1.00;19086;314;7505354;-36
2023/09/05 03:28:24;;;;;;;7.20;5.50;;;;;;;-128.00;-1.00;-1.00;19112;314;7506192;-36
2023/09/05 03:30:50;;;;;;;7.60;5.90;;;;;;;-128.00;-1.00;-1.00;19101;320;7504651;-36
2023/09/05 03:33:15;;;;;;;10.00;5.80;;;;;;;-128.00;-1.00;-1.00;19090;314;7505036;-35
2023/09/05 03:35:44;;;;;;;6.50;5.80;;;;;;;-128.00;-1.00;-1.00;19076;316;7504720;-31
2023/09/05 03:38:10;;;;;;;9.20;7.80;;;;;;;-128.00;-1.00;-1.00;19083;314;7506630;-31
2023/09/05 03:40:36;;;;;;;17.40;11.80;;;;;;;-128.00;-1.00;-1.00;19520;314;7505681;-31
2023/09/05 03:43:02;;;;;;;14.10;10.50;;;;;;;-128.00;-1.00;-1.00;19523;320;7504987;-36
2023/09/05 03:45:30;;;;;;;14.30;9.40;;;;;;;-128.00;-1.00;-1.00;19531;320;7505176;-36
2023/09/05 03:47:56;;;;;;;8.80;6.80;;;;;;;-128.00;-1.00;-1.00;19097;318;7504534;-31
2023/09/05 03:50:21;;;;;;;5.10;4.60;;;;;;;-128.00;-1.00;-1.00;19095;314;7505226;-36
2023/09/05 03:52:47;;;;;;;10.90;6.20;;;;;;;-128.00;-1.00;-1.00;19096;314;7506320;-32
2023/09/05 03:55:13;;;;;;;6.90;6.20;;;;;;;-128.00;-1.00;-1.00;19094;314;7506800;-35
2023/09/05 03:57:39;;;;;;;8.60;5.70;;;;;;;-128.00;-1.00;-1.00;19095;320;7505427;-36
2023/09/05 04:00:09;;;;;;;8.70;7.00;;;;;;;-128.00;-1.00;-1.00;19099;314;7504543;-36
2023/09/05 04:02:35;;;;;;;18.90;10.00;;;;;;;-128.00;-1.00;-1.00;19104;315;7504719;-36
2023/09/05 04:05:00;;;;;;;8.80;6.90;;;;;;;-128.00;-1.00;-1.00;19102;320;7505182;-31
2023/09/05 04:07:27;;;;;;;12.30;6.60;;;;;;;-128.00;-1.00;-1.00;19523;320;7505301;-36
2023/09/05 04:09:53;;;;;;;5.80;5.30;;;;;;;-128.00;-1.00;-1.00;19527;314;7504743;-31
2023/09/05 04:12:19;;;;;;;6.80;5.00;;;;;;;-128.00;-1.00;-1.00;19526;314;7505151;-35
2023/09/05 04:14:48;;;;;;;9.70;6.70;;;;;;;-128.00;-1.00;-1.00;19527;314;7504781;-34
2023/09/05 04:17:13;;;;;;;11.30;4.20;;;;;;;-128.00;-1.00;-1.00;19093;314;7507112;-34
2023/09/05 04:19:39;;;;;;;7.20;5.20;;;;;;;-128.00;-1.00;-1.00;19085;314;7504755;-35
2023/09/05 04:22:05;;;;;;;6.50;5.50;;;;;;;-128.00;-1.00;-1.00;19097;314;7505022;-32
2023/09/05 04:24:31;;;;;;;7.30;6.20;;;;;;;-128.00;-1.00;-1.00;19084;314;7504753;-32
2023/09/05 04:26:58;;;;;;;4.00;3.40;;;;;;;-128.00;-1.00;-1.00;19102;314;7506544;-32
2023/09/05 04:29:24;;;;;;;6.80;4.40;;;;;;;-128.00;-1.00;-1.00;19076;318;7504933;-32
2023/09/05 04:31:50;;;;;;;6.10;4.50;;;;;;;-128.00;-1.00;-1.00;19092;320;7505177;-32
2023/09/05 04:34:16;;;;;;;7.90;6.10;;;;;;;-128.00;-1.00;-1.00;19485;320;7505302;-35
2023/09/05 04:36:42;;;;;;;10.00;6.20;;;;;;;-128.00;-1.00;-1.00;19510;320;7504509;-35
2023/09/05 04:39:10;;;;;;;9.40;7.60;;;;;;;-128.00;-1.00;-1.00;19514;315;7504900;-35
2023/09/05 04:41:35;;;;;;;13.90;8.40;;;;;;;-128.00;-1.00;-1.00;19103;314;7504994;-36
2023/09/05 04:44:01;;;;;;;15.40;9.50;;;;;;;-128.00;-1.00;-1.00;19527;314;7504591;-31
2023/09/05 04:46:31;;;;;;;16.50;9.50;;;;;;;-128.00;-1.00;-1.00;19526;314;7504480;-34
2023/09/05 04:48:56;;;;;;;12.80;6.50;;;;;;;-128.00;-1.00;-1.00;19106;319;7506611;-35
2023/09/05 04:51:23;;;;;;;16.00;7.80;;;;;;;-128.00;-1.00;-1.00;19503;315;7504650;-31
2023/09/05 04:53:49;;;;;;;14.60;8.40;;;;;;;-128.00;-1.00;-1.00;19543;314;7504648;-35
2023/09/05 04:56:17;;;;;;;17.30;8.30;;;;;;;-128.00;-1.00;-1.00;19498;315;7504749;-31
2023/09/05 04:58:43;;;;;;;11.00;7.30;;;;;;;-128.00;-1.00;-1.00;19105;315;7505503;-35
2023/09/05 05:01:09;;;;;;;8.20;5.90;;;;;;;-128.00;-1.00;-1.00;19094;314;7504990;-35
2023/09/05 05:03:35;;;;;;;11.70;7.10;;;;;;;-128.00;-1.00;-1.00;19478;316;7505191;-31
2023/09/05 05:06:03;;;;;;;7.90;5.70;;;;;;;-128.00;-1.00;-1.00;19495;320;7504914;-31
2023/09/05 05:08:28;;;;;;;14.00;6.20;;;;;;;-128.00;-1.00;-1.00;19097;315;7506179;-31
2023/09/05 05:10:54;;;;;;;6.50;4.70;;;;;;;-128.00;-1.00;-1.00;19104;315;7505858;-31
2023/09/05 05:13:20;;;;;;;11.60;6.10;;;;;;;-128.00;-1.00;-1.00;19493;316;7504575;-35
2023/09/05 05:15:47;;;;;;;6.80;4.80;;;;;;;-128.00;-1.00;-1.00;19096;320;7504983;-32
2023/09/05 05:18:13;;;;;;;14.70;5.50;;;;;;;-128.00;-1.00;-1.00;19105;320;7504635;-32
2023/09/05 05:20:39;;;;;;;4.70;4.30;;;;;;;-128.00;-1.00;-1.00;19100;314;7504953;-31
2023/09/05 05:23:05;;;;;;;4.00;3.60;;;;;;;-128.00;-1.00;-1.00;19104;318;7506115;-31
2023/09/05 05:25:31;;;;;;;6.60;5.10;;;;;;;-128.00;-1.00;-1.00;19084;320;7505271;-32
2023/09/05 05:27:57;;;;;;;5.90;5.10;;;;;;;-128.00;-1.00;-1.00;19505;316;7504787;-35
2023/09/05 05:30:23;;;;;;;11.70;4.40;;;;;;;-128.00;-1.00;-1.00;19503;314;7504858;-32
2023/09/05 05:32:49;;;;;;;5.00;4.20;;;;;;;-128.00;-1.00;-1.00;19505;314;7505397;-31
2023/09/05 05:35:15;;;;;;;8.90;3.70;;;;;;;-128.00;-1.00;-1.00;19527;315;7504946;-30
2023/09/05 05:37:41;;;;;;;4.90;4.00;;;;;;;-128.00;-1.00;-1.00;19521;314;7506356;-35
2023/09/05 05:40:11;;;;;;;6.30;4.00;;;;;;;-128.00;-1.00;-1.00;19504;320;7504607;-34
2023/09/05 05:42:37;;;;;;;7.50;3.50;;;;;;;-128.00;-1.00;-1.00;19092;318;7505017;-35
2023/09/05 05:45:03;;;;;;;8.20;2.90;;;;;;;-128.00;-1.00;-1.00;19071;316;7504755;-35
2023/09/05 05:47:31;;;;;;;7.20;3.20;;;;;;;-128.00;-1.00;-1.00;19103;320;7506611;-31
2023/09/05 05:49:57;;;;;;;5.80;3.20;;;;;;;-128.00;-1.00;-1.00;19085;318;7504854;-35
2023/09/05 05:52:23;;;;;;;3.70;3.30;;;;;;;-128.00;-1.00;-1.00;19094;315;7505557;-31
2023/09/05 05:54:48;;;;;;;7.20;3.60;;;;;;;-128.00;-1.00;-1.00;19098;320;7504480;-32
2023/09/05 05:57:14;;;;;;;12.30;2.90;;;;;;;-128.00;-1.00;-1.00;19090;314;7505005;-36
2023/09/05 05:59:40;;;;;;;4.30;3.30;;;;;;;-128.00;-1.00;-1.00;19120;314;7505677;-36
2023/09/05 06:02:05;;;;;;;7.50;3.40;;;;;;;-128.00;-1.00;-1.00;19087;320;7505561;-36
2023/09/05 06:04:31;;;;;;;12.50;3.30;;;;;;;-128.00;-1.00;-1.00;19077;314;7504811;-32
2023/09/05 06:06:57;;;;;;;5.80;2.70;;;;;;;-128.00;-1.00;-1.00;19509;315;7504550;-36
2023/09/05 06:09:24;;;;;;;9.00;3.10;;;;;;;-128.00;-1.00;-1.00;19519;314;7504621;-35
2023/09/05 06:11:51;;;;;;;4.60;3.50;;;;;;;-128.00;-1.00;-1.00;19519;314;7506078;-35
2023/09/05 06:14:17;;;;;;;4.60;3.20;;;;;;;-128.00;-1.00;-1.00;19098;314;7505417;-35
2023/09/05 06:16:49;;;;;;;5.20;3.00;;;;;;;-128.00;-1.00;-1.00;19058;316;7504336;-31
2023/09/05 06:19:15;;;;;;;3.50;2.70;;;;;;;-128.00;-1.00;-1.00;19107;314;7504832;-31
2023/09/05 06:21:46;;;;;;;4.90;2.90;;;;;;;-128.00;-1.00;-1.00;19111;320;7504561;-35
2023/09/05 06:24:13;;;;;;;3.70;3.00;;;;;;;-128.00;-1.00;-1.00;19096;315;7504738;-32
2023/09/05 06:26:41;;;;;;;4.00;3.10;;;;;;;-128.00;-1.00;-1.00;19100;314;7506431;-36
2023/09/05 06:29:07;;;;;;;9.20;2.60;;;;;;;-128.00;-1.00;-1.00;19081;320;7506582;-32
2023/09/05 06:31:32;;;;;;;5.50;2.50;;;;;;;-128.00;-1.00;-1.00;19107;314;7504287;-36
2023/09/05 06:33:58;;;;;;;3.80;2.50;;;;;;;-128.00;-1.00;-1.00;19088;314;7504803;-36
2023/09/05 06:36:24;;;;;;;8.00;3.70;;;;;;;-128.00;-1.00;-1.00;19068;315;7504733;-32
2023/09/05 06:38:50;;;;;;;4.70;2.90;;;;;;;-128.00;-1.00;-1.00;19512;320;7504430;-32
2023/09/05 06:41:16;;;;;;;6.20;3.40;;;;;;;-128.00;-1.00;-1.00;19518;314;7505602;-32
2023/09/05 06:43:43;;;;;;;5.90;3.60;;;;;;;-128.00;-1.00;-1.00;19512;318;7504571;-32
2023/09/05 06:46:09;;;;;;;9.40;2.90;;;;;;;-128.00;-1.00;-1.00;19547;314;7504330;-37
2023/09/05 06:48:36;;;;;;;7.80;3.20;;;;;;;-128.00;-1.00;-1.00;19524;314;7505031;-35
2023/09/05 06:51:01;;;;;;;6.00;3.40;;;;;;;-128.00;-1.00;-1.00;19092;320;7504421;-31
2023/09/05 06:53:28;;;;;;;5.00;2.90;;;;;;;-128.00;-1.00;-1.00;19509;314;7504569;-35
2023/09/05 06:55:54;;;;;;;31.60;3.20;;;;;;;-128.00;-1.00;-1.00;19096;314;7505226;-35
2023/09/05 06:58:22;;;;;;;4.10;2.50;;;;;;;-128.00;-1.00;-1.00;19118;314;7505358;-31
2023/09/05 07:00:54;;;;;;;3.10;2.30;;;;;;;-128.00;-1.00;-1.00;19087;314;7504485;-31
2023/09/05 07:03:21;;;;;;;6.30;2.40;;;;;;;-128.00;-1.00;-1.00;19074;320;7504465;-35
2023/09/05 07:05:47;;;;;;;2.30;1.80;;;;;;;-128.00;-1.00;-1.00;19101;314;7506525;-31
2023/09/05 07:08:13;;;;;;;5.50;1.60;;;;;;;-128.00;-1.00;-1.00;19091;320;7504715;-35
2023/09/05 07:10:39;;;;;;;5.30;3.00;;;;;;;-128.00;-1.00;-1.00;19502;314;7505304;-34
2023/09/05 07:13:05;;;;;;;4.00;2.20;;;;;;;-128.00;-1.00;-1.00;19526;314;7504883;-35
2023/09/05 07:15:31;;;;;;;4.10;2.30;;;;;;;-128.00;-1.00;-1.00;19522;320;7506211;-35
2023/09/05 07:17:57;;;;;;;5.20;2.70;;;;;;;-128.00;-1.00;-1.00;19515;320;7504795;-31
2023/09/05 07:20:24;;;;;;;4.10;2.20;;;;;;;-128.00;-1.00;-1.00;19485;318;7504837;-35
2023/09/05 07:22:50;;;;;;;6.20;2.20;;;;;;;-128.00;-1.00;-1.00;19517;315;7506713;-35
2023/09/05 07:25:18;;;;;;;5.50;2.50;;;;;;;-128.00;-1.00;-1.00;19523;314;7504416;-35
2023/09/05 07:27:43;;;;;;;7.10;2.70;;;;;;;-128.00;-1.00;-1.00;19103;314;7505304;-35
2023/09/05 07:30:10;;;;;;;4.60;2.50;;;;;;;-128.00;-1.00;-1.00;19514;314;7505023;-35
2023/09/05 07:32:36;;;;;;;5.10;2.60;;;;;;;-128.00;-1.00;-1.00;19515;320;7504642;-36
2023/09/05 07:35:04;;;;;;;7.40;2.20;;;;;;;-128.00;-1.00;-1.00;19504;314;7504681;-36
2023/09/05 07:37:29;;;;;;;2.40;2.00;;;;;;;-128.00;-1.00;-1.00;19097;320;7505755;-36
2023/09/05 07:39:55;;;;;;;3.50;2.10;;;;;;;-128.00;-1.00;-1.00;19503;320;7505451;-36
2023/09/05 07:42:22;;;;;;;4.70;2.40;;;;;;;-128.00;-1.00;-1.00;19513;314;7505362;-36
2023/09/05 07:44:48;;;;;;;2.40;1.90;;;;;;;-128.00;-1.00;-1.00;19510;314;7504426;-33
2023/09/05 07:47:14;;;;;;;11.60;2.10;;;;;;;-128.00;-1.00;-1.00;19511;314;7505254;-32
2023/09/05 07:49:41;;;;;;;3.70;2.00;;;;;;;-128.00;-1.00;-1.00;19508;320;7506038;-36
2023/09/05 07:52:07;;;;;;;2.70;1.40;;;;;;;-128.00;-1.00;-1.00;19082;314;7504804;-32
2023/09/05 07:54:35;;;;;;;2.60;1.70;;;;;;;-128.00;-1.00;-1.00;19534;314;7506115;-32
2023/09/05 07:57:00;;;;;;;2.60;1.60;;;;;;;-128.00;-1.00;-1.00;19106;314;7504661;-36
2023/09/05 07:59:26;;;;;;;5.20;2.10;;;;;;;-128.00;-1.00;-1.00;19527;314;7504524;-32
2023/09/05 08:01:55;;;;;;;4.60;2.00;;;;;;;-128.00;-1.00;-1.00;19502;316;7504348;-32
2023/09/05 08:04:21;;;;;;;5.60;2.20;;;;;;;-128.00;-1.00;-1.00;19114;319;7505241;-36
2023/09/05 08:06:48;;;;;;;2.30;1.60;;;;;;;-128.00;-1.00;-1.00;19100;314;7504835;-32
2023/09/05 08:09:14;;;;;;;5.80;1.50;;;;;;;-128.00;-1.00;-1.00;19085;320;7504528;-32
2023/09/05 08:11:39;;;;;;;3.20;1.40;;;;;;;-128.00;-1.00;-1.00;19104;314;7505027;-32
2023/09/05 08:14:05;;;;;;;2.20;1.20;;;;;;;-128.00;-1.00;-1.00;19066;314;7505141;-33
2023/09/05 08:16:31;;;;;;;5.30;1.40;;;;;;;-128.00;-1.00;-1.00;19098;314;7506460;-33
2023/09/05 08:18:57;;;;;;;4.10;1.50;;;;;;;-128.00;-1.00;-1.00;19529;315;7505294;-37
2023/09/05 08:21:26;;;;;;;2.80;1.40;;;;;;;-128.00;-1.00;-1.00;19517;320;7506569;-33
2023/09/05 08:23:52;;;;;;;1.00;0.80;;;;;;;-128.00;-1.00;-1.00;19102;314;7506502;-32
2023/09/05 08:26:18;;;;;;;2.70;1.80;;;;;;;-128.00;-1.00;-1.00;19107;315;7504397;-36
2023/09/05 08:28:45;;;;;;;3.00;1.50;;;;;;;-128.00;-1.00;-1.00;19295;314;7504595;-33
2023/09/05 08:31:11;;;;;;;1.50;1.30;;;;;;;-128.00;-1.00;-1.00;19107;318;7505627;-33
2023/09/05 08:33:37;;;;;;;2.70;1.80;;;;;;;-128.00;-1.00;-1.00;19086;320;7504815;-32
2023/09/05 08:36:08;;;;;;;2.00;1.10;;;;;;;-128.00;-1.00;-1.00;19095;314;7505106;-32
2023/09/05 08:38:34;;;;;;;2.90;2.30;;;;;;;-128.00;-1.00;-1.00;19108;314;7504840;-36
2023/09/05 08:41:01;;;;;;;7.80;1.20;;;;;;;-128.00;-1.00;-1.00;19098;314;7506380;-36
2023/09/05 08:43:27;;;;;;;1.70;1.10;;;;;;;-128.00;-1.00;-1.00;19065;316;7505024;-36
2023/09/05 08:45:53;;;;;;;3.80;2.20;;;;;;;-128.00;-1.00;-1.00;19082;314;7506191;-36
2023/09/05 08:48:20;;;;;;;7.20;1.80;;;;;;;-128.00;-1.00;-1.00;19091;314;7504881;-36
2023/09/05 08:50:45;;;;;;;2.70;1.40;;;;;;;-128.00;-1.00;-1.00;19048;318;7504819;-32
2023/09/05 08:53:14;;;;;;;4.10;1.80;;;;;;;-128.00;-1.00;-1.00;19495;316;7505224;-33
2023/09/05 08:55:40;;;;;;;6.10;1.60;;;;;;;-128.00;-1.00;-1.00;19071;320;7505306;-36
2023/09/05 08:58:10;;;;;;;2.50;1.30;;;;;;;-128.00;-1.00;-1.00;19091;318;7506781;-36
2023/09/05 09:00:36;;;;;;;1.60;1.20;;;;;;;-128.00;-1.00;-1.00;19059;314;7506019;-36
2023/09/05 09:03:04;;;;;;;4.00;2.00;;;;;;;-128.00;-1.00;-1.00;19063;320;7505278;-36
2023/09/05 09:05:33;;;;;;;3.10;1.90;;;;;;;-128.00;-1.00;-1.00;19089;314;7505029;-36
2023/09/05 09:07:59;;;;;;;3.60;1.70;;;;;;;-128.00;-1.00;-1.00;19100;314;7504702;-36
2023/09/05 09:10:25;;;;;;;3.20;2.20;;;;;;;-128.00;-1.00;-1.00;19081;316;7505412;-32
2023/09/05 09:12:54;;;;;;;3.70;2.10;;;;;;;-128.00;-1.00;-1.00;19089;315;7505997;-33
2023/09/05 09:15:21;;;;;;;1.00;0.80;;;;;;;-128.00;-1.00;-1.00;19104;319;7504984;-32
2023/09/05 09:17:47;;;;;;;2.70;1.60;;;;;;;-128.00;-1.00;-1.00;19060;316;7506265;-32
2023/09/05 09:20:13;;;;;;;6.40;1.80;;;;;;;-128.00;-1.00;-1.00;19101;320;7504804;-33
2023/09/05 09:22:39;;;;;;;1.40;1.30;;;;;;;-128.00;-1.00;-1.00;18567;320;7506579;-36
2023/09/05 09:25:12;;;;;;;1.50;1.30;;;;;;;-128.00;-1.00;-1.00;19072;320;7504789;-32
2023/09/05 09:27:39;;;;;;;3.40;1.70;;;;;;;-128.00;-1.00;-1.00;19019;320;7505141;-32
2023/09/05 09:30:06;;;;;;;3.00;1.90;;;;;;;-128.00;-1.00;-1.00;19093;314;7506940;-36
2023/09/05 09:32:32;;;;;;;4.00;2.40;;;;;;;-128.00;-1.00;-1.00;19103;318;7505212;-36
2023/09/05 09:34:58;;;;;;;4.50;1.80;;;;;;;-128.00;-1.00;-1.00;19098;314;7504820;-36
2023/09/05 09:37:25;;;;;;;3.40;1.60;;;;;;;-128.00;-1.00;-1.00;19510;320;7504561;-33
2023/09/05 09:39:58;;;;;;;2.20;1.60;;;;;;;-128.00;-1.00;-1.00;19091;314;7505367;-36
2023/09/05 09:42:24;;;;;;;3.20;1.30;;;;;;;-128.00;-1.00;-1.00;19091;318;7504786;-33
2023/09/05 09:44:52;;;;;;;3.40;0.80;;;;;;;-128.00;-1.00;-1.00;19106;314;7504982;-33
2023/09/05 09:47:18;;;;;;;2.30;1.60;;;;;;;-128.00;-1.00;-1.00;19089;314;7505344;-37
2023/09/05 09:49:46;;;;;;;2.00;1.30;;;;;;;-128.00;-1.00;-1.00;19082;320;7504701;-33
2023/09/05 09:52:16;;;;;;;1.80;1.00;;;;;;;-128.00;-1.00;-1.00;19096;314;7504649;-32
2023/09/05 09:54:44;;;;;;;2.70;0.90;;;;;;;-128.00;-1.00;-1.00;19089;314;7505005;-36
2023/09/05 09:57:13;;;;;;;1.80;1.30;;;;;;;-128.00;-1.00;-1.00;19100;314;7506169;-36
2023/09/05 09:59:43;;;;;;;2.00;1.70;;;;;;;-128.00;-1.00;-1.00;19097;314;7505000;-37
2023/09/05 10:02:09;;;;;;;1.50;1.40;;;;;;;-128.00;-1.00;-1.00;19108;315;7504850;-30
2023/09/05 10:04:35;;;;;;;2.30;1.40;;;;;;;-128.00;-1.00;-1.00;19101;314;7505133;-32
2023/09/05 10:07:06;;;;;;;4.30;1.90;;;;;;;-128.00;-1.00;-1.00;19541;318;7505457;-35
2023/09/05 10:09:36;;;;;;;2.30;1.60;;;;;;;-128.00;-1.00;-1.00;19092;314;7506509;-36
2023/09/05 10:12:04;;;;;;;2.10;1.00;;;;;;;-128.00;-1.00;-1.00;19094;314;7506514;-36
2023/09/05 10:14:31;;;;;;;1.70;1.10;;;;;;;-128.00;-1.00;-1.00;19074;314;7506278;-32
2023/09/05 10:16:58;;;;;;;1.60;1.50;;;;;;;-128.00;-1.00;-1.00;19086;320;7506262;-32
2023/09/05 10:19:25;;;;;;;1.50;1.30;;;;;;;-128.00;-1.00;-1.00;19520;315;7504871;-35
2023/09/05 10:21:52;;;;;;;4.10;1.70;;;;;;;-128.00;-1.00;-1.00;19081;320;7504968;-36
2023/09/05 10:24:19;;;;;;;1.30;1.00;;;;;;;-128.00;-1.00;-1.00;20935;316;7505192;-31
2023/09/05 10:26:47;;;;;;;4.80;1.50;;;;;;;-128.00;-1.00;-1.00;20232;320;7505394;-36
2023/09/05 10:29:34;;;;;;;4.80;1.50;;;;;;;-128.00;-1.00;-1.00;20262;314;7506023;-32
2023/09/05 10:32:04;;;;;;;1.30;1.20;;;;;;;-128.00;-1.00;-1.00;19091;320;7504518;-32
2023/09/05 10:34:55;;;;;;;6.60;1.80;;;;;;;-128.00;-1.00;-1.00;19091;314;7506255;-35
2023/09/05 10:37:22;;;;;;;;;;;;;;;-128.00;-1.00;-1.00;19113;318;7504705;-32
2023/09/05 10:39:55;;;;;;;3.90;1.90;;;;;;;-128.00;-1.00;-1.00;20266;320;7506122;-36
2023/09/05 10:42:29;;;;;;;3.00;1.80;;;;;;;-128.00;-1.00;-1.00;58120;314;7504381;-36
2023/09/05 10:44:55;;;;;;;4.80;1.90;;;;;;;-128.00;-1.00;-1.00;55653;314;7504570;-35
2023/09/05 10:47:26;;;;;;;3.10;1.40;;;;;;;-128.00;-1.00;-1.00;101113;314;1003285;-31
2023/09/05 10:49:59;;;;;;;6.70;1.80;;;;;;;-128.00;-1.00;-1.00;101248;314;1004531;-35
2023/09/05 10:52:27;;;;;;;1.90;1.20;;;;;;;-128.00;-1.00;-1.00;101204;314;1002882;-35
2023/09/05 10:54:53;;;;;;;1.70;1.30;;;;;;;-128.00;-1.00;-1.00;101231;314;1002491;-33
2023/09/05 10:57:33;;;;;;;1.90;1.40;;;;;;;-128.00;-1.00;-1.00;75435;314;7504791;-36
2023/09/05 10:59:58;;;;;;;1.70;1.20;;;;;;;-128.00;-1.00;-1.00;101207;314;1003331;-31
2023/09/05 11:02:24;;;;;;;3.10;1.00;;;;;;;-128.00;-1.00;-1.00;83499;314;7504023;-31
2023/09/05 11:04:50;;;;;;;4.00;2.10;;;;;;;-128.00;-1.00;-1.00;101184;314;1003547;-35
2023/09/05 11:07:18;;;;;;;3.80;1.60;;;;;;;-128.00;-1.00;-1.00;49315;318;7505060;-36
2023/09/05 11:09:48;;;;;;;2.30;1.80;;;;;;;-128.00;-1.00;-1.00;19334;314;7504821;-36
2023/09/05 11:12:17;;;;;;;2.30;1.30;;;;;;;-128.00;-1.00;-1.00;60982;314;7504435;-32
2023/09/05 11:14:42;;;;;;;6.90;2.50;;;;;;;-128.00;-1.00;-1.00;59508;314;7505483;-35
2023/09/05 11:17:13;;;;;;;4.10;1.40;;;;;;;-128.00;-1.00;-1.00;100308;314;1073736;-32
2023/09/05 11:19:42;;;;;;;2.00;1.30;;;;;;;-128.00;-1.00;-1.00;65221;314;7410926;-32
2023/09/05 11:22:11;;;;;;;3.00;1.90;;;;;;;-128.00;-1.00;-1.00;34362;314;7504721;-32
2023/09/05 11:24:45;;;;;;;2.00;1.50;;;;;;;-128.00;-1.00;-1.00;85670;314;6910266;-36
2023/09/05 11:27:12;;;;;;;2.00;1.30;;;;;;;-128.00;-1.00;-1.00;31244;319;7504377;-36
2023/09/05 11:29:39;;;;;;;16.70;1.70;;;;;;;-128.00;-1.00;-1.00;45090;314;7504128;-36
2023/09/05 11:32:12;;;;;;;16.70;1.70;;;;;;;-128.00;-1.00;-1.00;28655;314;7504775;-32
2023/09/05 11:34:43;;;;;;;2.30;1.50;;;;;;;-128.00;-1.00;-1.00;94366;314;7504142;-31
2023/09/05 11:37:09;;;;;;;1.90;1.30;;;;;;;-128.00;-1.00;-1.00;101234;314;1003711;-35
2023/09/05 11:39:35;;;;;;;2.10;1.60;;;;;;;-128.00;-1.00;-1.00;100999;314;1003254;-34
2023/09/05 11:42:00;;;;;;;1.10;0.90;;;;;;;-128.00;-1.00;-1.00;101224;314;1003756;-35
2023/09/05 11:44:39;;;;;;;3.40;1.30;;;;;;;-128.00;-1.00;-1.00;101041;314;1003549;-34
2023/09/05 11:47:05;;;;;;;1.60;1.40;;;;;;;-128.00;-1.00;-1.00;101244;314;1003892;-31
2023/09/05 11:49:32;;;;;;;1.90;1.40;;;;;;;-128.00;-1.00;-1.00;101022;314;1003247;-35
2023/09/05 11:52:00;;;;;;;1.90;1.10;;;;;;;-128.00;-1.00;-1.00;101198;314;1003311;-35
2023/09/05 11:54:27;;;;;;;4.80;1.80;;;;;;;-128.00;-1.00;-1.00;101213;314;1004984;-35
2023/09/05 11:56:53;;;;;;;2.20;1.80;;;;;;;-128.00;-1.00;-1.00;101193;314;1004870;-34
2023/09/05 11:59:19;;;;;;;2.70;1.30;;;;;;;-128.00;-1.00;-1.00;101050;316;1002994;-35
2023/09/05 12:01:45;;;;;;;9.00;1.40;;;;;;;-128.00;-1.00;-1.00;101116;314;1002587;-31
2023/09/05 12:04:11;;;;;;;2.00;1.20;;;;;;;-128.00;-1.00;-1.00;101021;316;1003122;-35
2023/09/05 12:06:36;;;;;;;1.80;1.20;;;;;;;-128.00;-1.00;-1.00;101231;314;1003813;-35
2023/09/05 12:09:03;;;;;;;2.10;1.40;;;;;;;-128.00;-1.00;-1.00;101252;314;1004168;-35
2023/09/05 12:11:29;;;;;;;1.80;1.50;;;;;;;-128.00;-1.00;-1.00;101214;314;1004405;-37
2023/09/05 12:13:57;;;;;;;3.50;1.60;;;;;;;-128.00;-1.00;-1.00;101167;314;1003154;-35
2023/09/05 12:16:23;;;;;;;4.40;1.20;;;;;;;-128.00;-1.00;-1.00;101269;314;1003205;-31
2023/09/05 12:19:01;;;;;;;3.00;2.00;;;;;;;-128.00;-1.00;-1.00;101201;314;1003349;-31